Terminal Aerodrome Forecast
Issued by NWS Wilmington, NC

Home | Current Version | Previous Version | Text Only | Print | Product List | Glossary On
Versions: 1 2 3 4 5 6 7 8 9 10 11 12 13 14 15 16 17
000
FTUS42 KILM 120520
TAFFLO
TAF
KFLO 120520Z 1206/1306 20007KT P6SM SKC
     FM120800 22007KT P6SM SKC WS015/24035KT
     FM121300 25011G18KT P6SM FEW040
     FM121800 30010G20KT P6SM SCT080
     FM130000 30007KT P6SM SKC=

USA.gov is the U.S. government's official web portal to all federal, state and local government web resources and services.